createdAt,value
2023-02-03T00:01:33.821Z,101392.97
2023-02-03T00:04:03.929Z,101401.53
2023-02-03T00:06:34.712Z,101381.50
2023-02-03T00:09:07.580Z,101365.03
2023-02-03T00:11:37.628Z,101357.53
2023-02-03T00:14:08.206Z,101363.63
2023-02-03T00:16:38.605Z,101358.94
2023-02-03T00:19:08.785Z,101365.03
2023-02-03T00:21:39.065Z,101356.81
2023-02-03T00:24:12.056Z,101353.75
2023-02-03T00:26:44.145Z,101347.31
2023-02-03T00:29:14.828Z,101345.00
2023-02-03T00:31:45.450Z,101341.41
2023-02-03T00:34:15.805Z,101341.06
2023-02-03T00:36:46.879Z,101354.66
2023-02-03T00:39:19.969Z,101351.41
2023-02-03T00:41:50.350Z,101352.31
2023-02-03T00:44:20.571Z,101352.31
2023-02-03T00:46:50.947Z,101356.44
2023-02-03T00:49:21.172Z,101352.50
2023-02-03T00:51:51.369Z,101342.13
2023-02-03T00:54:24.179Z,101349.66
2023-02-03T00:56:54.392Z,101348.00
2023-02-03T00:59:24.797Z,101343.19
2023-02-03T01:01:54.943Z,101341.75
2023-02-03T01:04:25.093Z,101336.75
2023-02-03T01:06:57.687Z,101328.31
2023-02-03T01:09:30.436Z,101327.44
2023-02-03T01:12:00.721Z,101340.13
2023-02-03T01:14:31.001Z,101344.44
2023-02-03T01:17:01.345Z,101343.69
2023-02-03T01:19:31.658Z,101337.09
2023-02-03T01:22:02.455Z,101344.78
2023-02-03T01:24:35.804Z,101345.69
2023-02-03T01:27:06.349Z,101358.38
2023-02-03T01:29:36.657Z,101347.66
2023-02-03T01:32:07.061Z,101356.03
2023-02-03T01:34:38.792Z,101342.81
2023-02-03T01:37:09.549Z,101337.78
2023-02-03T01:39:42.185Z,101347.25
2023-02-03T01:42:15.186Z,101348.16
2023-02-03T01:44:47.762Z,101333.84
2023-02-03T01:47:24.610Z,101347.81
2023-02-03T01:49:59.184Z,101341.91
2023-02-03T01:52:30.763Z,101332.78
2023-02-03T01:55:06.032Z,101312.72
2023-02-03T01:57:38.188Z,101318.81
2023-02-03T02:00:09.776Z,101308.06
2023-02-03T02:02:47.045Z,101303.94
2023-02-03T02:05:19.089Z,101303.94
2023-02-03T02:07:50.640Z,101286.41
2023-02-03T02:10:23.433Z,101277.97
2023-02-03T02:12:53.744Z,101274.78
2023-02-03T02:15:26.881Z,101259.00
2023-02-03T02:18:04.674Z,101266.13
2023-02-03T02:20:38.581Z,101270.44
2023-02-03T02:23:20.962Z,101210.03
2023-02-03T02:25:59.713Z,101243.22
2023-02-03T02:28:43.081Z,101225.13
2023-02-03T02:31:25.508Z,101232.81
2023-02-03T02:34:03.665Z,101228.16
2023-02-03T02:36:38.173Z,101238.88
2023-02-03T02:39:12.445Z,101238.56
2023-02-03T02:41:46.895Z,101239.78
2023-02-03T02:44:20.024Z,101242.47
2023-02-03T02:46:51.584Z,101236.91
2023-02-03T02:49:28.162Z,101242.78
2023-02-03T02:51:59.752Z,101234.56
2023-02-03T02:54:31.291Z,101216.84
2023-02-03T02:57:03.830Z,101208.41
2023-02-03T02:59:35.003Z,101209.47
2023-02-03T03:02:05.269Z,101201.22
2023-02-03T03:04:39.292Z,101212.00
2023-02-03T03:07:12.102Z,101231.69
2023-02-03T03:09:44.427Z,101216.63
2023-02-03T03:12:18.521Z,101222.41
2023-02-03T03:14:51.559Z,101212.38
2023-02-03T03:17:24.881Z,101229.00
2023-02-03T03:19:58.943Z,101234.19
2023-02-03T03:22:31.853Z,101228.31
2023-02-03T03:25:04.925Z,101228.31
2023-02-03T03:27:37.553Z,101221.66
2023-02-03T03:30:09.793Z,101209.84
2023-02-03T03:32:41.010Z,101195.88
2023-02-03T03:35:14.091Z,101188.19
2023-02-03T03:37:46.404Z,101194.06
2023-02-03T03:40:20.147Z,101186.38
2023-02-03T03:42:53.287Z,101191.56
2023-02-03T03:45:27.922Z,101189.78
2023-02-03T03:48:01.252Z,101188.34
2023-02-03T03:50:35.885Z,101186.38
2023-02-03T03:53:07.194Z,101173.84
2023-02-03T03:55:37.994Z,101184.63
2023-02-03T03:58:10.795Z,101170.47
2023-02-03T04:00:42.526Z,101173.84
2023-02-03T04:03:16.814Z,101166.91
2023-02-03T04:05:49.522Z,101176.03
2023-02-03T04:08:19.743Z,101172.25
2023-02-03T04:10:50.073Z,101156.66
2023-02-03T04:13:20.948Z,101156.81
2023-02-03T04:15:51.435Z,101157.88
2023-02-03T04:18:22.846Z,101164.66
2023-02-03T04:20:55.657Z,101157.88
2023-02-03T04:23:25.922Z,101148.91
2023-02-03T04:25:56.190Z,101158.19
2023-02-03T04:28:26.326Z,101145.81
2023-02-03T04:30:56.400Z,101157.66
2023-02-03T04:33:26.440Z,101154.25
2023-02-03T04:35:59.104Z,101163.38
2023-02-03T04:38:29.250Z,101148.53
2023-02-03T04:40:59.717Z,101165.03
2023-02-03T04:43:30.003Z,101155.00
2023-02-03T04:46:01.939Z,101149.06
2023-02-03T04:48:32.181Z,101152.28
2023-02-03T04:51:07.170Z,101139.94
2023-02-03T04:53:37.873Z,101143.16
2023-02-03T04:56:08.363Z,101141.72
2023-02-03T04:58:39.203Z,101147.78
2023-02-03T05:01:09.933Z,101137.59
2023-02-03T05:03:40.277Z,101136.84
2023-02-03T05:06:13.069Z,101127.72
2023-02-03T05:08:43.125Z,101127.72
2023-02-03T05:11:13.320Z,101121.09
2023-02-03T05:13:43.339Z,101129.69
2023-02-03T05:16:13.456Z,101115.53
2023-02-03T05:18:43.710Z,101119.06
2023-02-03T05:21:17.356Z,101109.03
2023-02-03T05:23:47.514Z,101104.03
2023-02-03T05:26:18.167Z,101094.00
2023-02-03T05:28:48.196Z,101090.94
2023-02-03T05:31:18.467Z,101091.69
2023-02-03T05:33:48.711Z,101089.88
2023-02-03T05:36:21.393Z,101096.50
2023-02-03T05:38:51.519Z,101088.09
2023-02-03T05:41:33.969Z,101086.31
2023-02-03T05:44:04.194Z,101090.47
2023-02-03T05:46:35.528Z,101090.47
2023-02-03T05:49:05.619Z,101067.69
2023-02-03T05:51:38.449Z,101085.09
2023-02-03T05:54:08.710Z,101087.44
2023-02-03T05:56:38.930Z,101091.22
2023-02-03T05:59:08.948Z,101072.63
2023-02-03T06:01:39.072Z,101092.50
2023-02-03T06:04:09.607Z,101075.50
2023-02-03T06:06:42.306Z,101097.19
2023-02-03T06:09:12.422Z,101092.00
2023-02-03T06:11:42.846Z,101085.22
2023-02-03T06:14:12.946Z,101091.09
2023-02-03T06:16:43.101Z,101105.28
2023-02-03T06:19:15.247Z,101098.47
2023-02-03T06:21:49.031Z,101080.00
2023-02-03T06:24:19.134Z,101104.59
2023-02-03T06:26:49.266Z,101086.72
2023-02-03T06:29:19.429Z,101097.66
2023-02-03T06:31:49.640Z,101090.16
2023-02-03T06:34:19.732Z,101076.34
2023-02-03T06:36:52.744Z,101090.44
2023-02-03T06:39:22.944Z,101092.38
2023-02-03T06:41:53.614Z,101101.50
2023-02-03T06:44:23.643Z,101083.16
2023-02-03T06:46:53.715Z,101088.91
2023-02-03T06:49:24.271Z,101091.63
2023-02-03T06:51:57.178Z,101088.44
2023-02-03T06:54:27.280Z,101075.06
2023-02-03T06:56:57.481Z,101072.94
2023-02-03T06:59:27.541Z,101089.44
2023-02-03T07:01:57.635Z,101058.13
2023-02-03T07:04:28.520Z,101054.56
2023-02-03T07:07:01.310Z,101050.13
2023-02-03T07:09:31.414Z,101060.84
2023-02-03T07:12:01.553Z,101068.34
2023-02-03T07:14:31.634Z,101057.47
2023-02-03T07:17:01.770Z,101055.66
2023-02-03T07:19:31.949Z,101073.03
2023-02-03T07:22:04.620Z,101057.09
2023-02-03T07:24:34.690Z,101055.81
2023-02-03T07:27:04.905Z,101055.13
2023-02-03T07:29:34.999Z,101040.09
2023-02-03T07:32:05.377Z,101045.28
2023-02-03T07:34:35.697Z,101036.16
2023-02-03T07:37:08.703Z,101045.44
2023-02-03T07:39:38.713Z,101032.22
2023-02-03T07:42:08.716Z,101023.94
2023-02-03T07:44:41.989Z,101015.53
2023-02-03T07:47:12.672Z,101020.38
2023-02-03T07:49:43.034Z,101024.84
2023-02-03T07:52:15.816Z,101011.44
2023-02-03T07:54:45.938Z,101030.75
2023-02-03T07:57:15.990Z,101017.50
2023-02-03T07:59:45.971Z,101030.19
2023-02-03T08:02:15.984Z,101013.72
2023-02-03T08:04:46.415Z,101027.66
2023-02-03T08:07:19.046Z,101032.09
2023-02-03T08:09:49.101Z,101011.66
2023-02-03T08:12:19.066Z,101018.06
2023-02-03T08:14:49.100Z,101034.91
2023-02-03T08:17:19.112Z,101023.75
2023-02-03T08:19:49.137Z,101029.97
2023-02-03T08:22:21.821Z,101017.81
2023-02-03T08:24:51.919Z,101004.00
2023-02-03T08:27:23.885Z,100999.28
2023-02-03T08:29:53.905Z,101008.78
2023-02-03T08:32:25.008Z,101021.66
2023-02-03T08:34:55.125Z,101037.97
2023-02-03T08:37:28.392Z,101041.69
2023-02-03T08:39:58.545Z,101029.16
2023-02-03T08:42:29.010Z,101033.59
2023-02-03T08:44:59.056Z,101036.44
2023-02-03T08:47:29.258Z,101020.66
2023-02-03T08:49:59.403Z,101024.38
2023-02-03T08:52:32.110Z,101031.03
2023-02-03T08:55:02.284Z,101014.78
2023-02-03T08:57:35.327Z,101030.22
2023-02-03T09:00:06.324Z,101029.38
2023-02-03T09:02:36.320Z,101029.38
2023-02-03T09:05:07.434Z,101039.63
2023-02-03T09:07:40.015Z,101037.69
2023-02-03T09:10:10.324Z,101039.47
2023-02-03T09:12:40.363Z,101029.97
2023-02-03T09:15:10.816Z,101030.78
2023-02-03T09:17:40.903Z,101050.97
2023-02-03T09:20:13.423Z,101050.75
2023-02-03T09:22:46.124Z,101044.81
2023-02-03T09:25:17.371Z,101028.47
2023-02-03T09:27:47.759Z,101030.88
2023-02-03T09:30:17.863Z,101038.78
2023-02-03T09:32:54.168Z,101011.19
2023-02-03T09:35:24.283Z,101016.91
2023-02-03T09:37:56.889Z,101028.34
2023-02-03T09:40:29.883Z,101007.69
2023-02-03T09:43:21.248Z,100994.28
2023-02-03T09:45:51.632Z,101007.94
2023-02-03T09:48:24.133Z,101020.00
2023-02-03T09:50:55.016Z,101028.78
2023-02-03T09:53:31.419Z,101047.63
2023-02-03T09:56:02.573Z,101045.84
2023-02-03T09:58:35.966Z,101042.28
2023-02-03T10:01:09.475Z,101035.81
2023-02-03T10:03:41.232Z,101025.25
2023-02-03T10:06:15.181Z,101027.31
2023-02-03T10:08:55.332Z,101016.19
2023-02-03T10:11:32.040Z,101024.44
2023-02-03T10:14:10.169Z,101033.00
2023-02-03T10:16:46.038Z,101035.19
2023-02-03T10:19:20.775Z,101035.91
2023-02-03T10:21:53.866Z,101041.50
2023-02-03T10:24:29.510Z,101041.31
2023-02-03T10:26:59.928Z,101068.59
2023-02-03T10:29:33.427Z,101061.06
2023-02-03T10:32:03.721Z,101072.22
2023-02-03T10:34:33.999Z,101086.22
2023-02-03T10:37:05.995Z,101071.16
2023-02-03T10:39:42.764Z,101076.72
2023-02-03T10:42:14.341Z,101091.25
2023-02-03T10:44:45.984Z,101088.59
2023-02-03T10:47:27.866Z,101076.06
2023-02-03T10:50:00.375Z,101097.34
2023-02-03T10:52:32.058Z,101094.78
2023-02-03T10:55:07.453Z,101091.16
2023-02-03T10:57:39.401Z,101097.00
2023-02-03T11:00:11.531Z,101100.34
2023-02-03T11:02:41.648Z,101092.44
2023-02-03T11:05:12.983Z,101095.25
2023-02-03T11:07:43.175Z,101101.69
2023-02-03T11:10:28.381Z,101110.59
2023-02-03T11:13:14.107Z,101118.78
2023-02-03T11:15:54.316Z,101125.03
2023-02-03T11:18:36.636Z,101116.94
2023-02-03T11:21:11.932Z,101126.91
2023-02-03T11:23:47.139Z,101123.25
2023-02-03T11:26:17.974Z,101123.47
2023-02-03T11:28:49.372Z,101131.31
2023-02-03T11:31:24.078Z,101130.75
2023-02-03T11:33:57.708Z,101134.13
2023-02-03T11:36:31.699Z,101129.84
2023-02-03T11:39:12.258Z,101142.00
2023-02-03T11:41:42.883Z,101126.94
2023-02-03T11:44:19.491Z,101141.94
2023-02-03T11:46:55.183Z,101129.13
2023-02-03T11:49:37.980Z,101140.09
2023-02-03T11:52:13.914Z,101131.81
2023-02-03T11:54:48.024Z,101139.13
2023-02-03T11:57:30.734Z,101142.94
2023-02-03T12:00:06.228Z,101140.31
2023-02-03T12:02:54.954Z,101137.41
2023-02-03T12:05:33.658Z,101139.91
2023-02-03T12:08:10.503Z,101135.47
2023-02-03T12:10:46.139Z,101138.72
2023-02-03T12:13:29.468Z,101145.19
2023-02-03T12:16:06.588Z,101152.72
2023-02-03T12:18:47.795Z,101163.69
2023-02-03T12:21:26.863Z,101161.91
2023-02-03T12:24:03.478Z,101158.50
2023-02-03T12:26:37.436Z,101167.25
2023-02-03T12:29:11.969Z,101160.22
2023-02-03T12:31:45.813Z,101170.72
2023-02-03T12:34:22.349Z,101178.03
2023-02-03T12:36:57.283Z,101176.00
2023-02-03T12:39:29.654Z,101167.00
2023-02-03T12:42:02.958Z,101164.81
2023-02-03T12:44:35.625Z,101175.19
2023-02-03T12:47:09.183Z,101183.06
2023-02-03T12:49:46.028Z,101199.94
2023-02-03T12:52:21.690Z,101182.78
2023-02-03T12:54:54.516Z,101189.69
2023-02-03T12:57:29.262Z,101182.47
2023-02-03T13:00:08.353Z,101165.91
2023-02-03T13:02:45.410Z,101184.25
2023-02-03T13:05:24.211Z,101190.88
2023-02-03T13:07:57.478Z,101186.59
2023-02-03T13:10:31.547Z,101186.00
2023-02-03T13:13:02.657Z,101192.53
2023-02-03T13:15:34.538Z,101196.66
2023-02-03T13:18:08.186Z,101205.81
2023-02-03T13:20:40.921Z,101192.19
2023-02-03T13:23:15.221Z,101201.34
2023-02-03T13:25:54.672Z,101203.00
2023-02-03T13:28:32.455Z,101201.53
2023-02-03T13:31:14.120Z,101197.22
2023-02-03T13:33:54.222Z,101194.88
2023-02-03T13:36:39.243Z,101208.34
2023-02-03T13:39:29.367Z,101204.22
2023-02-03T13:42:10.976Z,101209.09
2023-02-03T13:44:42.176Z,101200.78
2023-02-03T13:47:18.793Z,101208.03
2023-02-03T13:49:52.405Z,101211.41
2023-02-03T13:52:30.885Z,101218.34
2023-02-03T13:55:04.865Z,101218.00
2023-02-03T13:57:37.167Z,101217.69
2023-02-03T14:00:09.572Z,101223.81
2023-02-03T14:02:46.356Z,101247.91
2023-02-03T14:05:31.436Z,101230.91
2023-02-03T14:08:01.644Z,101234.88
2023-02-03T14:10:34.570Z,101228.03
2023-02-03T14:13:04.666Z,101191.88
2023-02-03T14:15:36.751Z,101241.59
2023-02-03T14:18:09.555Z,101247.19
2023-02-03T14:20:41.647Z,101242.00
2023-02-03T14:23:14.006Z,101251.53
2023-02-03T14:25:47.950Z,101256.41
2023-02-03T14:28:23.478Z,101261.28
2023-02-03T14:31:10.615Z,101264.69
2023-02-03T14:33:57.453Z,101259.47
2023-02-03T14:36:31.866Z,101271.56
2023-02-03T14:39:03.155Z,101288.78
2023-02-03T14:41:44.814Z,101285.41
2023-02-03T14:44:21.968Z,101296.91
2023-02-03T14:47:09.723Z,101286.50
2023-02-03T14:50:00.575Z,101285.66
2023-02-03T14:52:37.030Z,101292.13
2023-02-03T14:55:15.544Z,101287.66
2023-02-03T14:57:51.948Z,101288.03
2023-02-03T15:00:31.458Z,101306.16
2023-02-03T15:03:19.919Z,101306.16
2023-02-03T15:05:50.594Z,101313.22
2023-02-03T15:08:36.715Z,101312.16
2023-02-03T15:11:34.267Z,101309.28
2023-02-03T15:14:22.099Z,101317.25
2023-02-03T15:16:56.424Z,101310.56
2023-02-03T15:19:28.040Z,101321.19
2023-02-03T15:21:58.477Z,101316.56
2023-02-03T15:24:39.504Z,101329.81
2023-02-03T15:27:25.465Z,101327.53
2023-02-03T15:30:01.672Z,101341.19
2023-02-03T15:32:36.170Z,101333.50
2023-02-03T15:35:08.482Z,101332.25
2023-02-03T15:37:42.725Z,101341.06
2023-02-03T15:40:16.820Z,101360.66
2023-02-03T15:42:54.771Z,101356.00
2023-02-03T15:45:31.540Z,101371.25
2023-02-03T15:48:04.671Z,101367.53
2023-02-03T15:50:36.614Z,101365.38
2023-02-03T15:53:08.367Z,101360.75
2023-02-03T15:55:40.587Z,101378.31
2023-02-03T15:58:19.045Z,101377.78
2023-02-03T16:00:54.367Z,101378.31
2023-02-03T16:03:31.176Z,101387.09
2023-02-03T16:06:08.703Z,101402.72
2023-02-03T16:08:41.819Z,101412.56
2023-02-03T16:11:27.177Z,101402.19
2023-02-03T16:13:59.805Z,101412.22
2023-02-03T16:16:37.884Z,101419.75
2023-02-03T16:19:09.702Z,101428.00
2023-02-03T16:21:47.103Z,101426.19
2023-02-03T16:24:35.815Z,101428.53
2023-02-03T16:27:20.790Z,101425.13
2023-02-03T16:30:03.495Z,101435.53
2023-02-03T16:32:48.587Z,101424.25
2023-02-03T16:35:31.548Z,101440.56
2023-02-03T16:38:20.189Z,101345.34
2023-02-03T16:41:02.773Z,101445.25
2023-02-03T16:43:45.471Z,101449.19
2023-02-03T16:46:28.197Z,101448.63
2023-02-03T16:49:13.311Z,101440.94
2023-02-03T16:51:44.714Z,101448.09
2023-02-03T16:54:17.461Z,101448.81
2023-02-03T16:56:47.562Z,101461.13
2023-02-03T16:59:17.679Z,101451.63
2023-02-03T17:01:47.933Z,101459.00
2023-02-03T17:04:20.736Z,101456.66
2023-02-03T17:06:51.449Z,101449.88
2023-02-03T17:09:23.626Z,101462.22
2023-02-03T17:11:54.357Z,101457.22
2023-02-03T17:14:24.584Z,101448.97
2023-02-03T17:16:55.211Z,101449.50
2023-02-03T17:19:27.950Z,101445.38
2023-02-03T17:21:58.035Z,101435.91
2023-02-03T17:24:28.266Z,101443.22
2023-02-03T17:26:59.112Z,101433.75
2023-02-03T17:29:29.426Z,101452.75
2023-02-03T17:31:59.523Z,101452.75
2023-02-03T17:34:32.163Z,101460.28
2023-02-03T17:37:02.381Z,101466.88
2023-02-03T17:55:45.474Z,101493.38
2023-02-03T17:58:15.662Z,101494.09
2023-02-03T18:00:45.674Z,101491.75
2023-02-03T18:03:15.691Z,101502.13
2023-02-03T18:05:55.562Z,101509.66
2023-02-03T18:08:25.926Z,101502.47
2023-02-03T18:10:56.008Z,101489.25
2023-02-03T18:13:27.072Z,101484.25
2023-02-03T18:15:58.491Z,101496.59
2023-02-03T18:18:29.140Z,101504.13
2023-02-03T18:21:01.922Z,101501.06
2023-02-03T18:23:32.143Z,101512.50
2023-02-03T18:26:02.615Z,101520.41
2023-02-03T18:28:32.999Z,101537.56
2023-02-03T18:31:03.532Z,101529.47
2023-02-03T18:33:33.693Z,101543.09
2023-02-03T18:36:07.025Z,101551.66
2023-02-03T18:38:37.730Z,101537.16
2023-02-03T18:41:08.606Z,101544.09
2023-02-03T18:43:38.966Z,101553.25
2023-02-03T18:46:09.311Z,101533.03
2023-02-03T18:48:39.354Z,101564.69
2023-02-03T18:51:13.658Z,101565.78
2023-02-03T18:53:45.051Z,101575.06
2023-02-03T18:56:17.569Z,101582.06
2023-02-03T18:58:47.833Z,101588.28
2023-02-03T19:01:29.630Z,101602.94
2023-02-03T19:04:01.093Z,101605.59
2023-02-03T19:06:35.039Z,101614.34
2023-02-03T19:09:06.488Z,101616.28
2023-02-03T19:11:36.755Z,101624.13
2023-02-03T19:14:06.950Z,101627.19
2023-02-03T19:16:37.092Z,101620.88
2023-02-03T19:19:07.231Z,101633.53
2023-02-03T19:21:39.925Z,101635.66
2023-02-03T19:24:10.363Z,101623.47
2023-02-03T19:26:40.471Z,101642.06
2023-02-03T19:29:11.189Z,101646.13
2023-02-03T19:31:41.400Z,101642.13
2023-02-03T19:34:11.757Z,101656.19
2023-02-03T19:36:46.253Z,101636.00
2023-02-03T19:39:16.626Z,101633.66
2023-02-03T19:41:46.743Z,101629.06
2023-02-03T19:44:17.236Z,101656.03
2023-02-03T19:46:47.390Z,101640.88
2023-02-03T19:49:18.286Z,101636.97
2023-02-03T19:51:52.008Z,101654.88
2023-02-03T19:54:22.193Z,101664.56
2023-02-03T19:56:52.293Z,101664.75
2023-02-03T19:59:22.724Z,101643.84
2023-02-03T20:01:52.949Z,101662.44
2023-02-03T20:04:23.092Z,101673.34
2023-02-03T20:06:55.768Z,101659.25
2023-02-03T20:09:26.113Z,101673.88
2023-02-03T20:11:56.325Z,101672.09
2023-02-03T20:14:26.606Z,101681.00
2023-02-03T20:16:56.779Z,101690.28
2023-02-03T20:19:27.046Z,101688.19
2023-02-03T20:22:01.021Z,101692.66
2023-02-03T20:24:31.150Z,101706.06
2023-02-03T20:27:01.376Z,101707.91
2023-02-03T20:29:31.473Z,101690.38
2023-02-03T20:32:01.866Z,101698.94
2023-02-03T20:34:32.101Z,101700.38
2023-02-03T20:37:06.762Z,101723.78
2023-02-03T20:39:37.269Z,101701.97
2023-02-03T20:42:12.345Z,101723.22
2023-02-03T20:44:42.606Z,101743.25
2023-02-03T20:47:13.810Z,101730.94
2023-02-03T20:49:43.872Z,101727.69
2023-02-03T20:52:17.828Z,101734.69
2023-02-03T20:54:47.996Z,101741.13
2023-02-03T20:57:20.713Z,101739.53
2023-02-03T20:59:51.131Z,101745.94
2023-02-03T21:02:23.062Z,101743.44
2023-02-03T21:04:59.971Z,101767.75
2023-02-03T21:07:33.498Z,101767.97
2023-02-03T21:10:05.825Z,101759.91
2023-02-03T21:12:35.807Z,101769.03
2023-02-03T21:15:06.094Z,101766.53
2023-02-03T21:17:38.960Z,101782.63
2023-02-03T21:20:18.864Z,101769.44
2023-02-03T21:22:51.543Z,101783.94
2023-02-03T21:25:29.548Z,101784.44
2023-02-03T21:28:00.211Z,101782.63
2023-02-03T21:30:33.228Z,101787.63
2023-02-03T21:33:04.180Z,101795.91
2023-02-03T21:35:37.435Z,101797.59
2023-02-03T21:38:26.664Z,101795.78
2023-02-03T21:40:57.147Z,101796.31
2023-02-03T21:43:27.240Z,101805.31
2023-02-03T21:45:57.633Z,101811.22
2023-02-03T21:48:29.288Z,101823.88
2023-02-03T21:50:59.879Z,101838.47
2023-02-03T21:53:35.919Z,101836.69
2023-02-03T21:56:19.840Z,101853.81
2023-02-03T21:58:50.945Z,101841.97
2023-02-03T22:01:23.056Z,101863.59
2023-02-03T22:03:53.883Z,101848.34
2023-02-03T22:06:29.069Z,101853.47
2023-02-03T22:09:01.845Z,101865.56
2023-02-03T22:11:33.279Z,101868.47
2023-02-03T22:14:03.568Z,101859.94
2023-02-03T22:16:33.694Z,101882.16
2023-02-03T22:19:03.872Z,101890.94
2023-02-03T22:21:36.718Z,101882.44
2023-02-03T22:24:10.057Z,101892.16
2023-02-03T22:26:40.476Z,101895.94
2023-02-03T22:29:10.632Z,101890.81
2023-02-03T22:31:42.796Z,101907.59
2023-02-03T22:34:15.598Z,101901.38
2023-02-03T22:36:45.646Z,101913.59
2023-02-03T22:39:18.434Z,101920.41
2023-02-03T22:41:48.586Z,101926.28
2023-02-03T22:44:19.192Z,101934.91
2023-02-03T22:46:49.293Z,101951.84
2023-02-03T22:49:19.566Z,101960.59
2023-02-03T22:51:49.598Z,101968.72
2023-02-03T22:54:22.600Z,101977.00
2023-02-03T22:56:52.663Z,101977.53
2023-02-03T22:59:23.258Z,101973.56
2023-02-03T23:01:53.890Z,101975.97
2023-02-03T23:04:23.978Z,101989.06
2023-02-03T23:06:54.138Z,101997.25
2023-02-03T23:09:26.860Z,102007.97
2023-02-03T23:11:56.922Z,102000.78
2023-02-03T23:14:26.952Z,102009.88
2023-02-03T23:16:56.986Z,102009.56
2023-02-03T23:19:27.741Z,102024.25
2023-02-03T23:21:59.331Z,102026.44
2023-02-03T23:24:32.021Z,102029.03
2023-02-03T23:27:02.292Z,102043.03
2023-02-03T23:29:33.124Z,102045.09
2023-02-03T23:32:03.582Z,102055.38
2023-02-03T23:34:46.110Z,102061.66
2023-02-03T23:37:16.164Z,102067.63
2023-02-03T23:39:48.913Z,102068.13
2023-02-03T23:42:19.080Z,102074.03
2023-02-03T23:44:49.124Z,102085.63
2023-02-03T23:47:19.257Z,102087.19
2023-02-03T23:49:49.323Z,102092.72
2023-02-03T23:52:19.513Z,102093.19
2023-02-03T23:54:52.256Z,102108.19
2023-02-03T23:57:22.354Z,102107.47
2023-02-03T23:59:52.374Z,102117.47
